Time;durP1;ratioP1;P1;durP2;ratioP2;P2;SDS_P1;SDS_P2;PMS_P1;PMS_P2;Temp;Humidity;BMP_temperature;BMP_pressure;BME280_temperature;BME280_humidity;BME280_pressure;Samples;Min_cycle;Max_cycle;Signal;HPM_P1;HPM_P2
2022/05/09 00:01:41;;;;;;;4.20;1.80;;;7.60;99.90;;;;;;5044830;28;20198;-78
2022/05/09 00:04:06;;;;;;;2.90;1.30;;;7.80;99.90;;;;;;5044868;28;20186;-81
2022/05/09 00:06:32;;;;;;;2.50;1.60;;;7.70;99.90;;;;;;5044217;28;20194;-79
2022/05/09 00:08:58;;;;;;;3.33;1.57;;;7.60;99.90;;;;;;5046465;28;20309;-79
2022/05/09 00:11:23;;;;;;;2.33;1.50;;;7.60;99.90;;;;;;5044665;28;20182;-80
2022/05/09 00:13:49;;;;;;;3.57;1.93;;;7.50;99.90;;;;;;5044181;28;20700;-80
2022/05/09 00:16:15;;;;;;;2.30;1.20;;;7.50;99.90;;;;;;5044096;28;20175;-79
2022/05/09 00:18:41;;;;;;;6.10;1.90;;;7.50;99.90;;;;;;5043998;28;20627;-79
2022/05/09 00:21:07;;;;;;;3.87;1.50;;;7.50;99.90;;;;;;5042353;28;20192;-79
2022/05/09 00:23:33;;;;;;;2.70;1.50;;;7.50;99.90;;;;;;5043323;28;20207;-80
2022/05/09 00:25:58;;;;;;;2.53;1.50;;;7.50;99.90;;;;;;5027698;28;20191;-80
2022/05/09 00:28:25;;;;;;;2.73;1.97;;;7.50;99.90;;;;;;5027858;28;20195;-78
2022/05/09 00:30:51;;;;;;;2.37;1.57;;;7.40;99.90;;;;;;5042536;28;20213;-80
2022/05/09 00:33:17;;;;;;;2.97;1.37;;;7.40;99.90;;;;;;5042692;28;20210;-80
2022/05/09 00:35:44;;;;;;;2.50;1.50;;;7.30;99.90;;;;;;5042468;28;20273;-79
2022/05/09 00:38:10;;;;;;;1.67;1.20;;;7.30;99.90;;;;;;5042723;28;20182;-81
2022/05/09 00:40:38;;;;;;;7.20;2.07;;;7.30;99.90;;;;;;5045368;28;20187;-83
2022/05/09 00:43:34;;;;;;;3.17;1.30;;;7.30;99.90;;;;;;5045561;28;20293;-79
2022/05/09 00:45:59;;;;;;;4.07;1.20;;;7.40;99.90;;;;;;5031047;28;20194;-82
2022/05/09 00:48:26;;;;;;;2.33;1.60;;;7.30;99.90;;;;;;5030664;28;20178;-81
2022/05/09 00:50:52;;;;;;;2.30;1.30;;;7.30;99.90;;;;;;5045998;28;20553;-81
2022/05/09 00:53:18;;;;;;;3.63;1.40;;;7.30;99.90;;;;;;5045503;28;21134;-79
2022/05/09 00:55:59;;;;;;;2.97;1.33;;;7.20;99.90;;;;;;5030440;28;20179;-82
2022/05/09 00:58:30;;;;;;;6.17;1.60;;;7.20;99.90;;;;;;5029294;28;20266;-81
2022/05/09 01:00:57;;;;;;;3.23;1.50;;;7.20;99.90;;;;;;5044898;28;20723;-80
2022/05/09 01:03:43;;;;;;;3.83;1.60;;;7.10;99.90;;;;;;5045227;28;20218;-78
2022/05/09 01:06:10;;;;;;;4.50;1.73;;;7.10;99.90;;;;;;5044668;28;20256;-82
2022/05/09 01:08:36;;;;;;;3.17;1.53;;;7.00;99.90;;;;;;5030015;28;20190;-79
2022/05/09 01:11:09;;;;;;;3.90;1.67;;;7.10;99.90;;;;;;5044760;28;20217;-82
2022/05/09 01:13:38;;;;;;;2.80;1.67;;;7.00;99.90;;;;;;5029954;28;20195;-80
2022/05/09 01:16:05;;;;;;;3.97;1.67;;;6.90;99.90;;;;;;5029896;28;20641;-80
2022/05/09 01:18:31;;;;;;;4.10;1.90;;;6.90;99.90;;;;;;5044392;28;20183;-80
2022/05/09 01:20:57;;;;;;;2.20;1.60;;;7.00;99.90;;;;;;5043694;28;20787;-79
2022/05/09 01:23:23;;;;;;;2.57;1.67;;;6.90;99.90;;;;;;5029794;28;20220;-79
2022/05/09 01:25:49;;;;;;;4.17;1.67;;;6.90;99.90;;;;;;5029275;28;20191;-81
2022/05/09 01:28:15;;;;;;;3.73;1.43;;;6.90;99.90;;;;;;5044824;28;20186;-81
2022/05/09 01:30:45;;;;;;;3.60;1.47;;;6.90;99.90;;;;;;5044372;28;20696;-81
2022/05/09 01:33:20;;;;;;;3.83;1.60;;;6.90;99.90;;;;;;5027449;28;20229;-82
2022/05/09 01:36:08;;;;;;;2.87;1.53;;;6.80;99.90;;;;;;5044317;28;20187;-82
2022/05/09 01:38:41;;;;;;;4.17;1.80;;;6.80;99.90;;;;;;5044182;28;20197;-79
2022/05/09 01:41:06;;;;;;;3.07;1.60;;;6.80;99.90;;;;;;5044415;28;20187;-82
2022/05/09 01:43:36;;;;;;;5.63;1.60;;;6.80;99.90;;;;;;5029190;28;20269;-79
2022/05/09 01:46:14;;;;;;;2.83;1.40;;;6.80;99.90;;;;;;5044919;28;20187;-80
2022/05/09 01:51:24;;;;;;;3.43;1.80;;;6.90;99.90;;;;;;5029701;28;20229;-80
2022/05/09 01:53:52;;;;;;;3.13;1.60;;;6.90;99.90;;;;;;5044873;28;21025;-82
2022/05/09 01:56:19;;;;;;;2.60;1.60;;;6.80;99.90;;;;;;5027980;28;20187;-82
2022/05/09 01:58:45;;;;;;;3.40;1.70;;;6.80;99.90;;;;;;5044292;28;20179;-80
2022/05/09 02:01:11;;;;;;;4.70;1.87;;;6.80;99.90;;;;;;5029323;28;20244;-82
2022/05/09 02:03:37;;;;;;;3.00;1.43;;;6.80;99.90;;;;;;5044992;28;20689;-82
2022/05/09 02:06:03;;;;;;;3.87;1.80;;;6.80;99.90;;;;;;5029257;28;20584;-80
2022/05/09 02:08:29;;;;;;;3.37;1.60;;;6.70;99.90;;;;;;5044134;28;20185;-80
2022/05/09 02:10:55;;;;;;;5.43;2.00;;;6.70;99.90;;;;;;5043786;28;20203;-82
2022/05/09 02:13:21;;;;;;;2.23;1.70;;;6.60;99.90;;;;;;5029473;28;20198;-80
2022/05/09 02:15:47;;;;;;;3.27;1.97;;;6.60;99.90;;;;;;5043931;28;20536;-79
2022/05/09 02:18:12;;;;;;;3.07;1.67;;;6.60;99.90;;;;;;5043986;28;20194;-80
2022/05/09 02:20:38;;;;;;;4.10;1.80;;;6.50;99.90;;;;;;5043494;28;20189;-79
2022/05/09 02:23:04;;;;;;;3.37;1.60;;;6.60;99.90;;;;;;5044240;28;20206;-78
2022/05/09 02:25:30;;;;;;;5.30;2.27;;;6.50;99.90;;;;;;5028420;28;21098;-82
2022/05/09 02:28:00;;;;;;;3.47;1.90;;;6.50;99.90;;;;;;5043426;28;20210;-79
2022/05/09 02:30:27;;;;;;;3.73;1.83;;;6.50;99.90;;;;;;5043927;28;20206;-78
2022/05/09 02:32:53;;;;;;;4.57;1.93;;;6.40;99.90;;;;;;5045033;28;20290;-78
2022/05/09 02:35:20;;;;;;;2.33;1.43;;;6.30;99.90;;;;;;5028732;28;20271;-80
2022/05/09 02:37:47;;;;;;;3.90;1.80;;;6.30;99.90;;;;;;5044699;28;20265;-82
2022/05/09 02:40:14;;;;;;;2.70;1.80;;;6.30;99.90;;;;;;5043913;28;20175;-81
2022/05/09 02:42:39;;;;;;;4.43;2.10;;;6.30;99.90;;;;;;5027977;28;20205;-79
2022/05/09 02:45:06;;;;;;;2.77;1.80;;;6.30;99.90;;;;;;5030801;28;20183;-79
2022/05/09 02:47:32;;;;;;;2.97;1.47;;;6.30;99.90;;;;;;5033356;28;20536;-78
2022/05/09 02:49:57;;;;;;;5.37;1.97;;;6.30;99.90;;;;;;5047453;28;20237;-80
2022/05/09 02:52:23;;;;;;;5.63;2.83;;;6.20;99.90;;;;;;5048285;28;20198;-82
2022/05/09 02:54:49;;;;;;;4.17;1.60;;;6.20;99.90;;;;;;5049401;28;20538;-79
2022/05/09 02:57:14;;;;;;;4.17;2.03;;;6.20;99.90;;;;;;5031921;28;20179;-79
2022/05/09 02:59:40;;;;;;;4.03;1.97;;;6.30;99.90;;;;;;5047708;28;20657;-81
2022/05/09 03:02:07;;;;;;;8.63;2.67;;;6.20;99.90;;;;;;5047197;28;20601;-79
2022/05/09 03:04:39;;;;;;;4.40;1.83;;;6.10;99.90;;;;;;5031010;28;20229;-80
2022/05/09 03:07:05;;;;;;;4.30;1.90;;;6.20;99.90;;;;;;5031596;28;20199;-81
2022/05/09 03:09:32;;;;;;;5.40;2.00;;;6.10;99.90;;;;;;5047355;28;20203;-82
2022/05/09 03:11:57;;;;;;;3.27;1.90;;;6.00;99.90;;;;;;5047664;28;20195;-79
2022/05/09 03:14:23;;;;;;;5.80;1.73;;;6.00;99.90;;;;;;5047252;28;20202;-78
2022/05/09 03:16:49;;;;;;;3.73;1.90;;;6.00;99.90;;;;;;5047338;28;20189;-78
2022/05/09 03:19:14;;;;;;;4.37;1.90;;;6.00;99.90;;;;;;5046812;28;20182;-82
2022/05/09 03:21:40;;;;;;;2.77;1.97;;;5.90;99.90;;;;;;5045962;28;21114;-79
2022/05/09 03:24:06;;;;;;;4.47;1.90;;;5.90;99.90;;;;;;5045928;28;20673;-79
2022/05/09 03:26:31;;;;;;;4.53;2.10;;;5.90;99.90;;;;;;5045629;28;20646;-79
2022/05/09 03:28:57;;;;;;;5.60;2.17;;;5.90;99.90;;;;;;5030413;28;20195;-80
2022/05/09 03:31:23;;;;;;;4.40;2.10;;;5.90;99.90;;;;;;5045069;28;20217;-81
2022/05/09 03:33:48;;;;;;;4.37;1.83;;;5.80;99.90;;;;;;5047079;28;20198;-78
2022/05/09 03:36:14;;;;;;;4.83;1.80;;;5.80;99.90;;;;;;5029100;28;20245;-78
2022/05/09 03:38:40;;;;;;;3.83;1.60;;;5.80;99.90;;;;;;5044556;28;20755;-79
2022/05/09 03:41:06;;;;;;;2.63;1.70;;;5.80;99.90;;;;;;5044735;28;20191;-78
2022/05/09 03:43:32;;;;;;;3.83;2.10;;;5.80;99.90;;;;;;5029159;28;20215;-79
2022/05/09 03:45:58;;;;;;;3.30;2.10;;;5.80;99.90;;;;;;5044401;28;20660;-79
2022/05/09 03:48:24;;;;;;;4.17;2.50;;;5.80;99.90;;;;;;5028366;28;20183;-77
2022/05/09 03:50:50;;;;;;;2.97;1.90;;;5.70;99.90;;;;;;5043826;28;20256;-78
2022/05/09 03:53:16;;;;;;;2.90;2.00;;;5.70;99.90;;;;;;5028236;28;20289;-80
2022/05/09 03:55:42;;;;;;;4.80;2.23;;;5.80;99.90;;;;;;5043280;28;20195;-79
2022/05/09 03:58:07;;;;;;;3.53;1.80;;;5.80;99.90;;;;;;5028546;28;20261;-79
2022/05/09 04:00:35;;;;;;;5.37;1.87;;;6.00;99.90;;;;;;5044437;28;20261;-78
2022/05/09 04:03:02;;;;;;;3.80;2.17;;;6.00;99.90;;;;;;5026228;28;20302;-78
2022/05/09 04:05:30;;;;;;;3.80;2.27;;;5.90;99.90;;;;;;5040063;28;20199;-79
2022/05/09 04:07:57;;;;;;;3.90;2.27;;;5.90;99.90;;;;;;5040980;28;20199;-79
2022/05/09 04:10:26;;;;;;;4.23;2.00;;;6.00;99.90;;;;;;5025895;28;20297;-78
2022/05/09 04:12:52;;;;;;;4.93;2.30;;;6.10;99.90;;;;;;5026327;28;20665;-79
2022/05/09 04:18:03;;;;;;;3.43;1.77;;;6.20;99.90;;;;;;5028899;28;20189;-80
2022/05/09 04:20:29;;;;;;;7.97;2.20;;;6.20;99.90;;;;;;5044191;28;20191;-77
2022/05/09 04:22:56;;;;;;;6.53;2.07;;;6.20;99.90;;;;;;5045204;28;20264;-78
2022/05/09 04:25:22;;;;;;;3.67;2.20;;;6.20;99.90;;;;;;5044640;28;20210;-82
2022/05/09 04:27:49;;;;;;;3.60;2.17;;;6.30;99.90;;;;;;5026646;28;20277;-78
2022/05/09 04:30:16;;;;;;;5.87;2.50;;;6.40;99.90;;;;;;5028168;28;20206;-80
2022/05/09 04:32:41;;;;;;;7.27;2.53;;;6.50;99.90;;;;;;5041987;28;20229;-79
2022/05/09 04:35:17;;;;;;;4.97;2.27;;;6.70;99.90;;;;;;5026637;28;20191;-79
2022/05/09 04:37:53;;;;;;;3.90;2.00;;;6.70;99.90;;;;;;5025257;28;20522;-79
2022/05/09 04:40:23;;;;;;;4.07;2.53;;;7.00;99.90;;;;;;5040004;28;20248;-80
2022/05/09 04:42:49;;;;;;;4.67;2.47;;;7.60;99.90;;;;;;5039938;28;20252;-81
2022/05/09 04:45:15;;;;;;;5.67;2.50;;;8.00;99.90;;;;;;5039611;28;20183;-81
2022/05/09 04:47:42;;;;;;;4.43;2.30;;;8.40;99.90;;;;;;5039606;28;20187;-80
2022/05/09 04:50:11;;;;;;;5.10;2.70;;;8.80;99.90;;;;;;5031224;28;20619;-79
2022/05/09 04:52:36;;;;;;;5.50;2.33;;;9.30;99.90;;;;;;5046067;28;20280;-80
2022/05/09 04:55:03;;;;;;;5.30;2.13;;;10.00;99.90;;;;;;5031957;28;20620;-81
2022/05/09 04:57:29;;;;;;;3.80;2.10;;;10.90;99.90;;;;;;5027092;28;20669;-80
2022/05/09 04:59:55;;;;;;;2.53;1.95;;;11.70;99.90;;;;;;5042713;28;20187;-80
2022/05/09 05:02:20;;;;;;;5.03;2.28;;;12.40;99.90;;;;;;5028818;28;20203;-81
2022/05/09 05:04:46;;;;;;;6.00;2.20;;;12.90;99.90;;;;;;5043854;28;21289;-81
2022/05/09 05:07:11;;;;;;;5.45;2.28;;;13.30;99.90;;;;;;5027237;28;20285;-80
2022/05/09 05:09:37;;;;;;;3.30;1.98;;;13.60;99.90;;;;;;5043968;28;20281;-80
2022/05/09 05:12:04;;;;;;;4.50;2.08;;;14.20;99.90;;;;;;5041375;28;20256;-80
2022/05/09 05:14:29;;;;;;;5.30;2.13;;;14.70;99.90;;;;;;5026662;28;20183;-80
2022/05/09 05:17:01;;;;;;;5.28;2.17;;;14.80;99.90;;;;;;5022202;28;20194;-81
2022/05/09 05:19:33;;;;;;;4.25;1.98;;;15.40;99.90;;;;;;5024071;28;20693;-80
2022/05/09 05:22:00;;;;;;;3.05;2.05;;;15.50;99.90;;;;;;5041884;28;20301;-81
2022/05/09 05:24:27;;;;;;;5.30;2.13;;;15.90;99.90;;;;;;5026798;28;20187;-80
2022/05/09 05:26:54;;;;;;;4.22;2.17;;;16.30;99.90;;;;;;5027340;28;20189;-85
2022/05/09 05:29:21;;;;;;;3.72;2.20;;;16.50;99.90;;;;;;5043202;28;20186;-80
2022/05/09 05:31:47;;;;;;;4.50;2.22;;;16.20;99.90;;;;;;5042981;28;20175;-83
2022/05/09 05:34:13;;;;;;;6.80;2.60;;;15.90;99.90;;;;;;5028293;28;20175;-83
2022/05/09 05:36:38;;;;;;;3.40;2.20;;;15.80;99.90;;;;;;5043395;28;20181;-84
2022/05/09 05:39:04;;;;;;;4.43;2.50;;;16.00;99.90;;;;;;5043184;28;20590;-83
2022/05/09 05:41:33;;;;;;;4.93;2.03;;;16.90;99.90;;;;;;5043515;28;20198;-81
2022/05/09 05:43:59;;;;;;;3.65;2.20;;;17.10;99.90;;;;;;5042610;28;20214;-82
2022/05/09 05:46:24;;;;;;;5.05;2.30;;;17.70;99.90;;;;;;5042762;28;20183;-80
2022/05/09 05:48:50;;;;;;;6.90;2.33;;;17.90;99.90;;;;;;5042024;28;20571;-81
2022/05/09 05:51:18;;;;;;;6.43;2.17;;;18.00;99.90;;;;;;5042920;28;20766;-85
2022/05/09 05:53:44;;;;;;;4.35;2.00;;;18.00;99.90;;;;;;5043052;28;20198;-82
2022/05/09 05:56:10;;;;;;;5.65;2.90;;;18.00;99.90;;;;;;5042608;28;20179;-85
2022/05/09 05:58:36;;;;;;;6.72;2.25;;;18.10;99.90;;;;;;5042242;28;20179;-83
2022/05/09 06:01:02;;;;;;;5.05;2.28;;;18.10;99.90;;;;;;5042848;28;20217;-85
2022/05/09 06:03:27;;;;;;;6.28;2.38;;;18.00;99.90;;;;;;5042893;28;20796;-84
2022/05/09 06:05:53;;;;;;;7.28;2.17;;;17.80;99.90;;;;;;5027832;28;20203;-80
2022/05/09 06:08:19;;;;;;;8.85;3.30;;;17.60;99.90;;;;;;5043064;28;20561;-83
2022/05/09 06:10:44;;;;;;;6.47;2.78;;;17.60;99.90;;;;;;5043123;28;20424;-83
2022/05/09 06:13:11;;;;;;;4.53;2.33;;;17.60;99.90;;;;;;5043518;28;20214;-84
2022/05/09 06:15:36;;;;;;;6.38;2.35;;;17.90;99.90;;;;;;5041907;28;20244;-84
2022/05/09 06:18:12;;;;;;;4.20;2.80;;;18.00;99.90;;;;;;5045582;28;20175;-83
2022/05/09 06:20:40;;;;;;;7.50;2.92;;;17.90;99.90;;;;;;5048848;28;20541;-82
2022/05/09 06:23:07;;;;;;;6.40;2.63;;;18.00;99.90;;;;;;5046715;28;20522;-85
2022/05/09 06:25:35;;;;;;;6.07;2.60;;;18.60;99.90;;;;;;5029309;28;20195;-81
2022/05/09 06:28:02;;;;;;;4.68;2.88;;;18.60;99.90;;;;;;5046950;28;20653;-82
2022/05/09 06:30:28;;;;;;;5.55;2.30;;;18.50;99.90;;;;;;5047095;28;20217;-81
2022/05/09 06:32:55;;;;;;;5.65;2.40;;;18.60;99.90;;;;;;5046586;28;20953;-82
2022/05/09 06:35:24;;;;;;;7.47;3.03;;;18.50;99.90;;;;;;5048631;28;20597;-81
2022/05/09 06:38:01;;;;;;;5.07;2.30;;;18.00;99.90;;;;;;5046804;28;20266;-83
2022/05/09 06:40:30;;;;;;;7.35;2.55;;;17.40;99.90;;;;;;5046332;28;20186;-80
2022/05/09 06:42:56;;;;;;;6.13;2.42;;;16.90;99.90;;;;;;5045790;28;20684;-81
2022/05/09 06:45:23;;;;;;;4.28;2.58;;;16.40;99.90;;;;;;5048115;28;20280;-82
2022/05/09 06:47:51;;;;;;;9.32;2.75;;;16.10;99.90;;;;;;5045973;28;20182;-80
2022/05/09 06:50:19;;;;;;;6.70;2.35;;;16.00;99.90;;;;;;5031410;28;20213;-81
2022/05/09 06:52:45;;;;;;;4.47;2.42;;;15.90;99.90;;;;;;5046259;28;20218;-80
2022/05/09 06:55:12;;;;;;;5.25;2.15;;;15.70;99.90;;;;;;5043653;28;20179;-79
2022/05/09 06:57:41;;;;;;;6.90;2.45;;;15.70;99.90;;;;;;5025225;28;20186;-80
2022/05/09 07:00:14;;;;;;;8.15;2.90;;;15.70;99.90;;;;;;5025738;28;20348;-81
2022/05/09 07:02:40;;;;;;;5.75;2.30;;;15.60;99.90;;;;;;5041544;28;20214;-79
2022/05/09 07:05:07;;;;;;;5.45;1.98;;;15.40;99.90;;;;;;5026066;28;20191;-80
2022/05/09 07:07:36;;;;;;;5.63;2.33;;;15.60;99.90;;;;;;5041620;28;20193;-81
2022/05/09 07:10:03;;;;;;;5.95;2.42;;;15.70;99.90;;;;;;5026293;28;20657;-80
2022/05/09 07:12:28;;;;;;;5.32;2.28;;;15.80;99.90;;;;;;5026018;28;20199;-79
2022/05/09 07:14:54;;;;;;;4.75;2.30;;;15.90;99.90;;;;;;5042162;28;20205;-81
2022/05/09 07:17:20;;;;;;;6.03;2.42;;;16.00;99.90;;;;;;5026064;28;20648;-80
2022/05/09 07:19:46;;;;;;;5.35;2.47;;;16.00;99.90;;;;;;5024657;28;20194;-82
2022/05/09 07:22:11;;;;;;;5.93;2.35;;;16.00;99.90;;;;;;5041555;28;20233;-80
2022/05/09 07:24:37;;;;;;;6.68;2.30;;;16.00;99.90;;;;;;5042624;28;20622;-81
2022/05/09 07:27:03;;;;;;;6.00;2.88;;;16.00;99.90;;;;;;5043773;28;20198;-81
2022/05/09 07:29:29;;;;;;;5.75;2.42;;;16.00;99.90;;;;;;5027349;28;20187;-81
2022/05/09 07:31:54;;;;;;;5.57;2.30;;;16.00;99.90;;;;;;5040362;28;20186;-81
2022/05/09 07:34:20;;;;;;;6.03;2.30;;;16.00;99.90;;;;;;5025751;28;20202;-81
2022/05/09 07:36:46;;;;;;;5.63;2.50;;;16.10;99.90;;;;;;5040695;28;20179;-82
2022/05/09 07:39:11;;;;;;;7.40;2.75;;;16.20;99.90;;;;;;5028351;28;20273;-83
2022/05/09 07:41:37;;;;;;;4.15;2.33;;;16.30;99.90;;;;;;5043147;28;20240;-82
2022/05/09 07:44:03;;;;;;;4.57;2.53;;;16.40;99.90;;;;;;5027095;28;20629;-82
2022/05/09 07:46:28;;;;;;;5.50;2.53;;;16.50;99.90;;;;;;5041219;28;20747;-82
2022/05/09 07:48:54;;;;;;;5.63;2.60;;;16.60;99.90;;;;;;5044103;28;20182;-82
2022/05/09 07:51:20;;;;;;;3.45;2.17;;;16.60;99.90;;;;;;5043618;28;20579;-83
2022/05/09 07:53:46;;;;;;;5.93;2.92;;;16.90;99.90;;;;;;5043763;28;20195;-82
2022/05/09 07:56:12;;;;;;;6.25;3.25;;;17.00;99.90;;;;;;5043244;28;20601;-83
2022/05/09 07:58:39;;;;;;;5.68;2.60;;;16.90;99.90;;;;;;5029002;28;20194;-82
2022/05/09 08:01:05;;;;;;;7.63;2.78;;;16.60;99.90;;;;;;5028673;28;20183;-83
2022/05/09 08:03:34;;;;;;;7.78;2.95;;;16.90;99.90;;;;;;5044766;28;20257;-81
2022/05/09 08:06:00;;;;;;;4.78;2.17;;;17.10;99.90;;;;;;5029081;28;20282;-81
2022/05/09 08:08:30;;;;;;;5.53;2.35;;;17.30;99.90;;;;;;5044496;28;20182;-79
2022/05/09 08:11:00;;;;;;;7.18;2.50;;;17.40;99.90;;;;;;5043088;28;20198;-81
2022/05/09 08:13:30;;;;;;;6.03;2.45;;;17.40;99.90;;;;;;5040960;28;20595;-81
2022/05/09 08:15:56;;;;;;;4.50;2.42;;;17.50;99.90;;;;;;5025453;28;20957;-82
2022/05/09 08:18:24;;;;;;;5.70;2.50;;;17.60;99.90;;;;;;5039313;28;20188;-80
2022/05/09 08:20:50;;;;;;;6.63;2.53;;;17.60;99.90;;;;;;5023256;28;20723;-80
2022/05/09 08:23:18;;;;;;;4.32;2.55;;;17.70;99.90;;;;;;5038230;28;20215;-82
2022/05/09 08:25:46;;;;;;;5.22;2.60;;;17.90;99.90;;;;;;5040712;28;20201;-82
2022/05/09 08:28:12;;;;;;;5.13;2.25;;;17.80;99.90;;;;;;5025907;28;20182;-82
2022/05/09 08:30:38;;;;;;;6.32;2.50;;;17.70;99.90;;;;;;5039365;28;20202;-82
2022/05/09 08:33:14;;;;;;;5.00;2.53;;;17.90;99.90;;;;;;5023522;28;20218;-82
2022/05/09 08:35:41;;;;;;;5.22;3.03;;;18.00;99.90;;;;;;5023265;28;20227;-80
2022/05/09 08:38:07;;;;;;;6.18;2.40;;;18.30;99.90;;;;;;5038409;28;20189;-82
2022/05/09 08:40:34;;;;;;;5.72;2.72;;;18.40;99.90;;;;;;5038420;28;20266;-82
2022/05/09 08:43:14;;;;;;;6.82;2.50;;;18.50;99.00;;;;;;5036944;28;20194;-81
2022/05/09 08:45:47;;;;;;;6.53;2.17;;;18.60;97.50;;;;;;5037500;28;20193;-82
2022/05/09 08:48:19;;;;;;;5.43;2.28;;;18.80;97.70;;;;;;5038492;28;20201;-82
2022/05/09 08:51:06;;;;;;;6.05;2.30;;;18.90;95.00;;;;;;5040507;28;20206;-80
2022/05/09 08:53:36;;;;;;;7.70;2.13;;;18.80;95.70;;;;;;5024904;28;20202;-82
2022/05/09 08:56:02;;;;;;;3.88;1.88;;;18.80;96.40;;;;;;5024742;28;20178;-83
2022/05/09 08:58:43;;;;;;;6.57;2.30;;;18.80;92.70;;;;;;5025400;28;20281;-82
2022/05/09 09:01:14;;;;;;;7.32;2.53;;;18.90;92.50;;;;;;5023423;28;20186;-81
2022/05/09 09:03:46;;;;;;;3.55;1.80;;;19.00;92.90;;;;;;5023495;28;20218;-82
2022/05/09 09:06:40;;;;;;;5.03;2.00;;;19.20;90.40;;;;;;5036581;28;20201;-82
2022/05/09 09:09:17;;;;;;;5.22;2.08;;;19.40;90.70;;;;;;5038611;28;20186;-81
2022/05/09 09:12:01;;;;;;;4.13;1.75;;;19.20;90.90;;;;;;5042516;28;20244;-81
2022/05/09 09:14:48;;;;;;;4.10;2.00;;;19.40;90.30;;;;;;5040867;28;20265;-81
2022/05/09 09:17:27;;;;;;;4.90;1.70;;;19.40;85.90;;;;;;5039435;28;20178;-83
2022/05/09 09:20:01;;;;;;;5.88;1.90;;;19.60;87.40;;;;;;5041295;28;20186;-82
2022/05/09 09:22:45;;;;;;;5.30;2.00;;;19.90;87.00;;;;;;5040341;28;20203;-82
2022/05/09 09:25:35;;;;;;;5.28;1.90;;;19.90;85.00;;;;;;5023730;28;20182;-81
2022/05/09 09:28:07;;;;;;;3.33;1.67;;;19.90;81.00;;;;;;5039398;28;20183;-81
2022/05/09 09:30:34;;;;;;;5.00;1.50;;;19.90;79.70;;;;;;5040829;28;20210;-81
2022/05/09 09:33:03;;;;;;;4.43;1.90;;;20.00;78.20;;;;;;5039322;28;20383;-80
2022/05/09 09:36:07;;;;;;;4.25;1.60;;;20.10;75.80;;;;;;5023853;28;20190;-81
2022/05/09 09:38:37;;;;;;;3.30;1.50;;;20.10;73.90;;;;;;5037701;28;20174;-81
2022/05/09 09:41:26;;;;;;;6.22;1.75;;;20.00;70.70;;;;;;5038724;28;20187;-80
2022/05/09 09:44:04;;;;;;;3.70;1.75;;;20.20;69.10;;;;;;5024510;28;20223;-81
2022/05/09 09:46:30;;;;;;;3.20;1.85;;;20.30;68.30;;;;;;5024595;28;20190;-81
2022/05/09 09:49:07;;;;;;;6.20;1.52;;;20.20;63.90;;;;;;5041165;28;20193;-82
2022/05/09 09:51:44;;;;;;;3.63;1.50;;;20.30;66.60;;;;;;5025243;28;20328;-81
2022/05/09 09:54:10;;;;;;;4.50;1.30;;;20.10;68.20;;;;;;5044052;28;20552;-81
2022/05/09 09:56:36;;;;;;;5.63;1.67;;;20.30;67.60;;;;;;5046000;28;20177;-80
2022/05/09 09:59:11;;;;;;;3.30;1.75;;;20.30;67.30;;;;;;5045459;28;20178;-79
2022/05/09 10:01:37;;;;;;;3.88;1.63;;;20.30;69.80;;;;;;5045108;28;20474;-80
2022/05/09 10:04:27;;;;;;;4.28;1.67;;;20.30;71.00;;;;;;5046291;28;20182;-80
2022/05/09 10:07:26;;;;;;;3.63;1.73;;;20.40;70.50;;;;;;5028738;28;20202;-79
2022/05/09 10:10:10;;;;;;;3.65;1.52;;;20.60;71.10;;;;;;5029538;28;21189;-79
2022/05/09 10:12:37;;;;;;;5.22;1.88;;;20.60;67.90;;;;;;5030506;28;20258;-81
2022/05/09 10:15:27;;;;;;;3.63;1.33;;;20.70;67.70;;;;;;5045673;28;20596;-80
2022/05/09 10:17:54;;;;;;;5.05;1.70;;;20.80;66.60;;;;;;5046150;28;20171;-81
2022/05/09 10:20:36;;;;;;;4.25;1.83;;;20.90;67.40;;;;;;5032433;28;20232;-80
2022/05/09 10:26:17;;;;;;;4.45;1.48;;;20.60;65.50;;;;;;5032013;28;20586;-80
2022/05/09 10:28:48;;;;;;;3.53;1.80;;;20.70;67.00;;;;;;5032151;28;20174;-83
2022/05/09 10:31:38;;;;;;;3.25;1.30;;;21.20;68.50;;;;;;5047350;28;20222;-80
2022/05/09 10:34:05;;;;;;;4.93;1.58;;;21.50;66.30;;;;;;5032215;28;20187;-79
2022/05/09 10:36:56;;;;;;;4.88;1.58;;;21.00;64.30;;;;;;5031117;28;20207;-82
2022/05/09 10:39:34;;;;;;;5.43;2.05;;;21.00;65.20;;;;;;5032132;28;20179;-81
2022/05/09 10:42:03;;;;;;;4.97;1.85;;;21.20;61.80;;;;;;5046888;28;20631;-80
2022/05/09 10:45:01;;;;;;;4.45;1.75;;;21.40;60.00;;;;;;5047153;28;20645;-81
2022/05/09 10:47:45;;;;;;;3.00;1.50;;;21.10;60.90;;;;;;5031558;28;20191;-82
2022/05/09 10:50:23;;;;;;;4.25;1.55;;;20.90;63.50;;;;;;5046116;28;20289;-79
2022/05/09 10:53:15;;;;;;;2.70;1.30;;;21.00;63.90;;;;;;5047127;28;20202;-81
2022/05/09 10:55:48;;;;;;;4.10;1.45;;;21.20;62.00;;;;;;5031618;28;20171;-80
2022/05/09 10:58:20;;;;;;;1.67;1.20;;;21.20;59.90;;;;;;5048162;28;20532;-81
2022/05/09 11:00:51;;;;;;;3.67;1.15;;;21.10;60.00;;;;;;5047988;28;20183;-81
2022/05/09 11:03:34;;;;;;;4.30;1.45;;;21.40;59.70;;;;;;5032823;28;20699;-81
2022/05/09 11:06:15;;;;;;;2.88;1.45;;;21.40;58.30;;;;;;5043636;28;20202;-80
2022/05/09 11:09:11;;;;;;;4.80;1.70;;;21.40;61.10;;;;;;5044172;28;20183;-81
2022/05/09 11:12:12;;;;;;;5.03;1.52;;;21.40;62.30;;;;;;5028427;28;20252;-81
2022/05/09 11:14:52;;;;;;;3.97;1.40;;;21.60;61.30;;;;;;5028614;28;20198;-81
2022/05/09 11:17:33;;;;;;;6.20;1.40;;;21.60;61.30;;;;;;5043377;28;20206;-80
2022/05/09 11:20:17;;;;;;;3.70;1.50;;;21.70;60.00;;;;;;5043970;28;20175;-83
2022/05/09 11:22:47;;;;;;;4.88;1.45;;;21.80;61.00;;;;;;5042703;28;20199;-82
2022/05/09 11:25:50;;;;;;;4.30;1.40;;;22.00;58.80;;;;;;5043136;28;20190;-81
2022/05/09 11:28:46;;;;;;;4.38;1.30;;;22.00;60.90;;;;;;5043533;28;20609;-80
2022/05/09 11:31:42;;;;;;;3.53;1.70;;;22.30;61.70;;;;;;5025424;28;20238;-82
2022/05/09 11:34:28;;;;;;;2.85;1.40;;;22.30;60.50;;;;;;5028687;28;20183;-80
2022/05/09 11:37:04;;;;;;;2.95;1.42;;;22.10;62.30;;;;;;5042534;28;20738;-80
2022/05/09 11:39:52;;;;;;;4.68;1.60;;;21.50;61.90;;;;;;5027179;28;20274;-80
2022/05/09 11:45:34;;;;;;;3.35;1.17;;;21.90;62.20;;;;;;5027816;28;20728;-81
2022/05/09 11:48:16;;;;;;;5.00;1.42;;;21.90;61.00;;;;;;5025373;28;20439;-79
2022/05/09 11:51:12;;;;;;;4.60;1.58;;;21.90;60.30;;;;;;5022788;28;20622;-79
2022/05/09 11:53:42;;;;;;;6.60;1.75;;;21.80;60.70;;;;;;5041060;28;20198;-81
2022/05/09 11:56:08;;;;;;;3.08;1.20;;;21.90;62.20;;;;;;5024182;28;20254;-79
2022/05/09 11:58:41;;;;;;;11.93;1.92;;;22.30;62.00;;;;;;5026048;28;20649;-81
2022/05/09 12:01:07;;;;;;;4.75;1.73;;;22.10;60.80;;;;;;5040652;28;20476;-80
2022/05/09 12:03:39;;;;;;;4.47;1.60;;;22.10;61.40;;;;;;5026204;28;20755;-80
2022/05/09 12:06:05;;;;;;;6.53;2.10;;;21.90;61.40;;;;;;5040925;28;20207;-80
2022/05/09 12:08:43;;;;;;;2.60;1.20;;;22.10;61.60;;;;;;5025529;28;20179;-80
2022/05/09 12:11:22;;;;;;;5.03;1.52;;;21.60;62.80;;;;;;5027085;28;20290;-81
2022/05/09 12:13:50;;;;;;;4.05;1.50;;;21.50;63.60;;;;;;5040437;28;20218;-79
2022/05/09 12:16:36;;;;;;;2.45;1.45;;;21.80;63.70;;;;;;5024958;28;20194;-79
2022/05/09 12:19:05;;;;;;;3.60;1.85;;;22.20;63.00;;;;;;5024168;28;20726;-80
2022/05/09 12:21:37;;;;;;;4.45;1.50;;;22.20;64.30;;;;;;5040346;28;20182;-81
2022/05/09 12:24:22;;;;;;;6.07;1.65;;;22.30;61.30;;;;;;5040728;28;20261;-80
2022/05/09 12:26:53;;;;;;;3.17;1.60;;;22.10;62.50;;;;;;5040177;28;20189;-80
2022/05/09 12:29:18;;;;;;;5.13;1.90;;;22.30;63.60;;;;;;5025664;28;20183;-80
2022/05/09 12:31:47;;;;;;;3.72;1.33;;;22.50;62.70;;;;;;5040541;28;20260;-82
2022/05/09 12:34:16;;;;;;;5.97;1.65;;;22.70;61.60;;;;;;5040657;28;20642;-80
2022/05/09 12:36:44;;;;;;;1.98;1.48;;;22.80;61.90;;;;;;5039700;28;20179;-80
2022/05/09 12:39:15;;;;;;;3.03;1.50;;;22.60;61.20;;;;;;5040763;28;20544;-80
2022/05/09 12:41:55;;;;;;;3.72;1.60;;;22.60;62.70;;;;;;5040103;28;20183;-80
2022/05/09 12:44:28;;;;;;;1.85;1.42;;;22.50;62.50;;;;;;5024883;28;20652;-80
2022/05/09 12:47:09;;;;;;;3.92;1.70;;;22.70;61.80;;;;;;5039570;28;20182;-80
2022/05/09 12:50:06;;;;;;;6.28;2.15;;;22.80;63.40;;;;;;5040103;28;20187;-80
2022/05/09 12:52:36;;;;;;;3.30;1.80;;;22.80;61.30;;;;;;5004414;28;20444;-82
2022/05/09 12:57:47;;;;;;;3.20;1.90;;;22.80;62.40;;;;;;5023951;28;20269;-84
2022/05/09 13:00:24;;;;;;;3.80;1.83;;;22.90;60.90;;;;;;5039486;28;20643;-84
2022/05/09 13:02:50;;;;;;;4.53;1.77;;;22.80;60.80;;;;;;5039650;28;20301;-83
2022/05/09 13:05:17;;;;;;;7.38;1.83;;;22.60;61.50;;;;;;5040591;28;20683;-81
2022/05/09 13:08:00;;;;;;;5.50;2.00;;;22.70;61.50;;;;;;5026434;28;20210;-84
2022/05/09 13:10:28;;;;;;;4.07;1.60;;;22.60;62.90;;;;;;5039543;28;20270;-82
2022/05/09 13:13:01;;;;;;;4.25;1.70;;;22.90;62.10;;;;;;5025252;28;20218;-81
2022/05/09 13:15:28;;;;;;;5.68;1.60;;;23.00;61.80;;;;;;5041289;28;20247;-82
2022/05/09 13:18:22;;;;;;;3.25;1.58;;;22.90;60.80;;;;;;5040738;28;20179;-83
2022/05/09 13:20:58;;;;;;;6.25;1.90;;;23.20;60.30;;;;;;5039014;28;20195;-81
2022/05/09 13:23:39;;;;;;;4.05;1.70;;;23.30;62.00;;;;;;5026352;28;20690;-82